sensor_id;sensor_type;location;lat;lon;timestamp;P1;durP1;ratioP1;P2;durP2;ratioP2
49183;SDS011;35021;49.214;12.270;2023-04-03T00:00:19;1.98;;;1.33;;
49183;SDS011;35021;49.214;12.270;2023-04-03T00:02:46;1.08;;;0.95;;
49183;SDS011;35021;49.214;12.270;2023-04-03T00:05:13;2.08;;;1.20;;
49183;SDS011;35021;49.214;12.270;2023-04-03T00:07:40;2.55;;;1.17;;
49183;SDS011;35021;49.214;12.270;2023-04-03T00:10:07;3.40;;;1.50;;
49183;SDS011;35021;49.214;12.270;2023-04-03T00:12:35;2.22;;;1.17;;
49183;SDS011;35021;49.214;12.270;2023-04-03T00:15:02;1.10;;;1.00;;
49183;SDS011;35021;49.214;12.270;2023-04-03T00:17:29;1.83;;;1.33;;
49183;SDS011;35021;49.214;12.270;2023-04-03T00:19:56;1.67;;;1.00;;
49183;SDS011;35021;49.214;12.270;2023-04-03T00:22:23;1.30;;;1.15;;
49183;SDS011;35021;49.214;12.270;2023-04-03T00:24:50;1.00;;;0.90;;
49183;SDS011;35021;49.214;12.270;2023-04-03T00:27:17;1.55;;;1.20;;
49183;SDS011;35021;49.214;12.270;2023-04-03T00:29:43;1.17;;;1.08;;
49183;SDS011;35021;49.214;12.270;2023-04-03T00:32:10;1.75;;;1.27;;
49183;SDS011;35021;49.214;12.270;2023-04-03T00:34:37;1.60;;;1.13;;
49183;SDS011;35021;49.214;12.270;2023-04-03T00:37:04;2.00;;;1.35;;
49183;SDS011;35021;49.214;12.270;2023-04-03T00:39:31;1.83;;;1.05;;
49183;SDS011;35021;49.214;12.270;2023-04-03T00:41:58;1.67;;;1.10;;
49183;SDS011;35021;49.214;12.270;2023-04-03T00:47:04;1.45;;;1.00;;
49183;SDS011;35021;49.214;12.270;2023-04-03T00:49:35;1.52;;;1.02;;
49183;SDS011;35021;49.214;12.270;2023-04-03T00:52:03;1.42;;;0.95;;
49183;SDS011;35021;49.214;12.270;2023-04-03T00:54:32;2.22;;;1.05;;
49183;SDS011;35021;49.214;12.270;2023-04-03T00:57:02;1.27;;;0.90;;
49183;SDS011;35021;49.214;12.270;2023-04-03T00:59:33;1.65;;;1.10;;
49183;SDS011;35021;49.214;12.270;2023-04-03T01:02:10;1.73;;;1.30;;
49183;SDS011;35021;49.214;12.270;2023-04-03T01:04:39;1.45;;;1.13;;
49183;SDS011;35021;49.214;12.270;2023-04-03T01:07:09;1.08;;;0.90;;
49183;SDS011;35021;49.214;12.270;2023-04-03T01:09:38;1.52;;;1.10;;
49183;SDS011;35021;49.214;12.270;2023-04-03T01:14:49;1.75;;;1.35;;
49183;SDS011;35021;49.214;12.270;2023-04-03T01:17:31;1.80;;;1.00;;
49183;SDS011;35021;49.214;12.270;2023-04-03T01:28:26;1.70;;;1.10;;
49183;SDS011;35021;49.214;12.270;2023-04-03T01:33:50;1.25;;;1.13;;
49183;SDS011;35021;49.214;12.270;2023-04-03T01:36:22;1.33;;;1.23;;
49183;SDS011;35021;49.214;12.270;2023-04-03T01:38:56;1.48;;;1.10;;
49183;SDS011;35021;49.214;12.270;2023-04-03T01:41:25;1.38;;;1.00;;
49183;SDS011;35021;49.214;12.270;2023-04-03T01:43:53;1.40;;;1.23;;
49183;SDS011;35021;49.214;12.270;2023-04-03T01:46:21;1.25;;;1.00;;
49183;SDS011;35021;49.214;12.270;2023-04-03T01:48:48;1.45;;;1.00;;
49183;SDS011;35021;49.214;12.270;2023-04-03T01:51:15;1.00;;;0.90;;
49183;SDS011;35021;49.214;12.270;2023-04-03T01:53:42;2.83;;;1.20;;
49183;SDS011;35021;49.214;12.270;2023-04-03T01:56:10;2.05;;;0.95;;
49183;SDS011;35021;49.214;12.270;2023-04-03T01:58:37;1.70;;;0.80;;
49183;SDS011;35021;49.214;12.270;2023-04-03T02:01:04;1.13;;;0.93;;
49183;SDS011;35021;49.214;12.270;2023-04-03T02:03:32;1.45;;;1.00;;
49183;SDS011;35021;49.214;12.270;2023-04-03T02:05:59;1.70;;;1.20;;
49183;SDS011;35021;49.214;12.270;2023-04-03T02:08:26;1.30;;;0.90;;
49183;SDS011;35021;49.214;12.270;2023-04-03T02:10:53;1.85;;;1.17;;
49183;SDS011;35021;49.214;12.270;2023-04-03T02:13:20;2.17;;;1.30;;
49183;SDS011;35021;49.214;12.270;2023-04-03T02:15:47;1.05;;;0.90;;
49183;SDS011;35021;49.214;12.270;2023-04-03T02:18:14;1.30;;;1.00;;
49183;SDS011;35021;49.214;12.270;2023-04-03T02:20:41;1.20;;;0.90;;
49183;SDS011;35021;49.214;12.270;2023-04-03T02:23:09;1.17;;;0.90;;
49183;SDS011;35021;49.214;12.270;2023-04-03T02:25:36;1.92;;;1.20;;
49183;SDS011;35021;49.214;12.270;2023-04-03T02:28:04;1.60;;;1.17;;
49183;SDS011;35021;49.214;12.270;2023-04-03T02:30:32;1.38;;;0.93;;
49183;SDS011;35021;49.214;12.270;2023-04-03T02:32:59;1.63;;;1.20;;
49183;SDS011;35021;49.214;12.270;2023-04-03T02:35:26;1.60;;;1.05;;
49183;SDS011;35021;49.214;12.270;2023-04-03T02:37:53;1.20;;;1.10;;
49183;SDS011;35021;49.214;12.270;2023-04-03T02:40:20;1.95;;;1.13;;
49183;SDS011;35021;49.214;12.270;2023-04-03T02:42:46;1.38;;;1.00;;
49183;SDS011;35021;49.214;12.270;2023-04-03T02:45:13;1.10;;;0.98;;
49183;SDS011;35021;49.214;12.270;2023-04-03T02:47:40;1.35;;;1.00;;
49183;SDS011;35021;49.214;12.270;2023-04-03T02:50:07;1.40;;;1.25;;
49183;SDS011;35021;49.214;12.270;2023-04-03T02:52:34;1.38;;;1.10;;
49183;SDS011;35021;49.214;12.270;2023-04-03T02:55:01;1.35;;;1.10;;
49183;SDS011;35021;49.214;12.270;2023-04-03T02:57:28;2.03;;;1.10;;
49183;SDS011;35021;49.214;12.270;2023-04-03T02:59:55;1.33;;;1.13;;
49183;SDS011;35021;49.214;12.270;2023-04-03T03:02:22;3.10;;;1.50;;
49183;SDS011;35021;49.214;12.270;2023-04-03T03:04:49;1.60;;;1.10;;
49183;SDS011;35021;49.214;12.270;2023-04-03T03:07:16;1.10;;;1.00;;
49183;SDS011;35021;49.214;12.270;2023-04-03T03:09:43;1.50;;;1.00;;
49183;SDS011;35021;49.214;12.270;2023-04-03T03:12:09;1.60;;;0.95;;
49183;SDS011;35021;49.214;12.270;2023-04-03T03:14:36;1.20;;;1.08;;
49183;SDS011;35021;49.214;12.270;2023-04-03T03:17:03;1.15;;;0.85;;
49183;SDS011;35021;49.214;12.270;2023-04-03T03:19:30;1.25;;;0.98;;
49183;SDS011;35021;49.214;12.270;2023-04-03T03:21:56;2.50;;;1.10;;
49183;SDS011;35021;49.214;12.270;2023-04-03T03:24:23;1.15;;;0.80;;
49183;SDS011;35021;49.214;12.270;2023-04-03T03:26:50;2.50;;;1.00;;
49183;SDS011;35021;49.214;12.270;2023-04-03T03:29:17;1.92;;;1.27;;
49183;SDS011;35021;49.214;12.270;2023-04-03T03:31:44;1.20;;;0.90;;
49183;SDS011;35021;49.214;12.270;2023-04-03T03:34:11;1.52;;;1.08;;
49183;SDS011;35021;49.214;12.270;2023-04-03T03:36:38;1.40;;;1.08;;
49183;SDS011;35021;49.214;12.270;2023-04-03T03:39:05;1.65;;;0.93;;
49183;SDS011;35021;49.214;12.270;2023-04-03T03:41:32;1.25;;;0.85;;
49183;SDS011;35021;49.214;12.270;2023-04-03T03:43:58;1.40;;;1.20;;
49183;SDS011;35021;49.214;12.270;2023-04-03T03:46:25;2.60;;;1.10;;
49183;SDS011;35021;49.214;12.270;2023-04-03T03:48:52;1.92;;;0.95;;
49183;SDS011;35021;49.214;12.270;2023-04-03T03:51:19;1.92;;;1.02;;
49183;SDS011;35021;49.214;12.270;2023-04-03T03:53:46;1.65;;;1.05;;
49183;SDS011;35021;49.214;12.270;2023-04-03T03:56:12;2.30;;;1.10;;
49183;SDS011;35021;49.214;12.270;2023-04-03T03:58:39;1.42;;;1.10;;
49183;SDS011;35021;49.214;12.270;2023-04-03T04:01:06;2.20;;;1.00;;
49183;SDS011;35021;49.214;12.270;2023-04-03T04:03:33;2.35;;;1.30;;
49183;SDS011;35021;49.214;12.270;2023-04-03T04:06:00;1.38;;;0.98;;
49183;SDS011;35021;49.214;12.270;2023-04-03T04:08:28;1.77;;;1.02;;
49183;SDS011;35021;49.214;12.270;2023-04-03T04:10:54;2.00;;;1.05;;
49183;SDS011;35021;49.214;12.270;2023-04-03T04:13:21;1.40;;;0.88;;
49183;SDS011;35021;49.214;12.270;2023-04-03T04:15:48;2.13;;;1.20;;
49183;SDS011;35021;49.214;12.270;2023-04-03T04:18:15;2.03;;;1.23;;
49183;SDS011;35021;49.214;12.270;2023-04-03T04:20:44;1.10;;;1.00;;
49183;SDS011;35021;49.214;12.270;2023-04-03T04:23:12;0.98;;;0.80;;
49183;SDS011;35021;49.214;12.270;2023-04-03T04:25:39;1.42;;;1.08;;
49183;SDS011;35021;49.214;12.270;2023-04-03T04:28:06;1.50;;;1.20;;
49183;SDS011;35021;49.214;12.270;2023-04-03T04:30:32;1.50;;;1.00;;
49183;SDS011;35021;49.214;12.270;2023-04-03T04:32:59;2.25;;;1.13;;
49183;SDS011;35021;49.214;12.270;2023-04-03T04:35:27;1.40;;;1.00;;
49183;SDS011;35021;49.214;12.270;2023-04-03T04:37:54;1.20;;;1.10;;
49183;SDS011;35021;49.214;12.270;2023-04-03T04:40:21;1.75;;;0.90;;
49183;SDS011;35021;49.214;12.270;2023-04-03T04:42:48;1.52;;;0.98;;
49183;SDS011;35021;49.214;12.270;2023-04-03T04:45:15;1.38;;;1.17;;
49183;SDS011;35021;49.214;12.270;2023-04-03T04:47:42;2.25;;;1.05;;
49183;SDS011;35021;49.214;12.270;2023-04-03T04:50:09;3.53;;;1.10;;
49183;SDS011;35021;49.214;12.270;2023-04-03T04:52:36;2.65;;;1.23;;
49183;SDS011;35021;49.214;12.270;2023-04-03T04:55:04;2.10;;;1.13;;
49183;SDS011;35021;49.214;12.270;2023-04-03T04:57:31;1.13;;;1.00;;
49183;SDS011;35021;49.214;12.270;2023-04-03T04:59:58;2.35;;;1.30;;
49183;SDS011;35021;49.214;12.270;2023-04-03T05:02:25;2.47;;;1.33;;
49183;SDS011;35021;49.214;12.270;2023-04-03T05:04:52;1.80;;;1.30;;
49183;SDS011;35021;49.214;12.270;2023-04-03T05:07:19;2.17;;;1.25;;
49183;SDS011;35021;49.214;12.270;2023-04-03T05:09:47;2.40;;;1.30;;
49183;SDS011;35021;49.214;12.270;2023-04-03T05:12:13;1.67;;;1.10;;
49183;SDS011;35021;49.214;12.270;2023-04-03T05:14:40;1.00;;;0.82;;
49183;SDS011;35021;49.214;12.270;2023-04-03T05:17:07;1.52;;;1.00;;
49183;SDS011;35021;49.214;12.270;2023-04-03T05:19:34;2.13;;;1.35;;
49183;SDS011;35021;49.214;12.270;2023-04-03T05:22:01;3.15;;;1.30;;
49183;SDS011;35021;49.214;12.270;2023-04-03T05:24:28;1.60;;;1.40;;
49183;SDS011;35021;49.214;12.270;2023-04-03T05:26:54;3.30;;;2.20;;
49183;SDS011;35021;49.214;12.270;2023-04-03T05:29:21;3.85;;;2.88;;
49183;SDS011;35021;49.214;12.270;2023-04-03T05:31:51;4.10;;;3.70;;
49183;SDS011;35021;49.214;12.270;2023-04-03T05:34:18;4.68;;;4.15;;
49183;SDS011;35021;49.214;12.270;2023-04-03T05:36:45;4.68;;;4.20;;
49183;SDS011;35021;49.214;12.270;2023-04-03T05:39:12;5.10;;;4.60;;
49183;SDS011;35021;49.214;12.270;2023-04-03T05:41:39;3.78;;;3.47;;
49183;SDS011;35021;49.214;12.270;2023-04-03T05:44:06;4.22;;;3.30;;
49183;SDS011;35021;49.214;12.270;2023-04-03T05:46:32;4.22;;;3.10;;
49183;SDS011;35021;49.214;12.270;2023-04-03T05:48:59;2.75;;;2.55;;
49183;SDS011;35021;49.214;12.270;2023-04-03T05:51:30;3.13;;;2.33;;
49183;SDS011;35021;49.214;12.270;2023-04-03T05:54:03;9.18;;;2.60;;
49183;SDS011;35021;49.214;12.270;2023-04-03T05:56:36;4.15;;;2.55;;
49183;SDS011;35021;49.214;12.270;2023-04-03T05:59:02;2.72;;;1.73;;
49183;SDS011;35021;49.214;12.270;2023-04-03T06:01:30;2.42;;;1.73;;
49183;SDS011;35021;49.214;12.270;2023-04-03T06:03:57;2.60;;;1.73;;
49183;SDS011;35021;49.214;12.270;2023-04-03T06:06:25;2.30;;;1.50;;
49183;SDS011;35021;49.214;12.270;2023-04-03T06:08:52;2.38;;;1.90;;
49183;SDS011;35021;49.214;12.270;2023-04-03T06:11:19;2.50;;;1.75;;
49183;SDS011;35021;49.214;12.270;2023-04-03T06:13:47;2.40;;;1.45;;
49183;SDS011;35021;49.214;12.270;2023-04-03T06:16:14;2.33;;;1.52;;
49183;SDS011;35021;49.214;12.270;2023-04-03T06:18:43;3.78;;;1.63;;
49183;SDS011;35021;49.214;12.270;2023-04-03T06:21:10;2.35;;;1.65;;
49183;SDS011;35021;49.214;12.270;2023-04-03T06:23:37;2.20;;;1.40;;
49183;SDS011;35021;49.214;12.270;2023-04-03T06:26:03;2.25;;;1.33;;
49183;SDS011;35021;49.214;12.270;2023-04-03T06:28:31;2.30;;;1.58;;
49183;SDS011;35021;49.214;12.270;2023-04-03T06:30:58;2.75;;;1.73;;
49183;SDS011;35021;49.214;12.270;2023-04-03T06:33:25;2.88;;;1.52;;
49183;SDS011;35021;49.214;12.270;2023-04-03T06:35:56;3.38;;;1.70;;
49183;SDS011;35021;49.214;12.270;2023-04-03T06:38:25;2.15;;;1.40;;
49183;SDS011;35021;49.214;12.270;2023-04-03T06:40:51;2.92;;;1.60;;
49183;SDS011;35021;49.214;12.270;2023-04-03T06:43:18;2.80;;;1.58;;
49183;SDS011;35021;49.214;12.270;2023-04-03T06:45:47;2.85;;;1.60;;
49183;SDS011;35021;49.214;12.270;2023-04-03T06:48:14;2.58;;;1.30;;
49183;SDS011;35021;49.214;12.270;2023-04-03T06:50:41;3.00;;;1.95;;
49183;SDS011;35021;49.214;12.270;2023-04-03T06:53:08;2.75;;;1.52;;
49183;SDS011;35021;49.214;12.270;2023-04-03T06:55:36;3.45;;;1.98;;
49183;SDS011;35021;49.214;12.270;2023-04-03T06:58:03;3.20;;;1.73;;
49183;SDS011;35021;49.214;12.270;2023-04-03T07:00:30;2.50;;;1.90;;
49183;SDS011;35021;49.214;12.270;2023-04-03T07:02:57;3.78;;;1.77;;
49183;SDS011;35021;49.214;12.270;2023-04-03T07:05:24;3.83;;;1.63;;
49183;SDS011;35021;49.214;12.270;2023-04-03T07:07:52;3.35;;;1.70;;
49183;SDS011;35021;49.214;12.270;2023-04-03T07:10:20;2.63;;;1.42;;
49183;SDS011;35021;49.214;12.270;2023-04-03T07:12:47;3.30;;;1.73;;
49183;SDS011;35021;49.214;12.270;2023-04-03T07:15:14;3.08;;;1.50;;
49183;SDS011;35021;49.214;12.270;2023-04-03T07:17:41;2.13;;;1.38;;
49183;SDS011;35021;49.214;12.270;2023-04-03T07:20:08;2.75;;;1.55;;
49183;SDS011;35021;49.214;12.270;2023-04-03T07:22:35;2.88;;;1.65;;
49183;SDS011;35021;49.214;12.270;2023-04-03T07:25:03;3.17;;;1.73;;
49183;SDS011;35021;49.214;12.270;2023-04-03T07:27:32;1.90;;;1.23;;
49183;SDS011;35021;49.214;12.270;2023-04-03T07:29:59;2.35;;;1.60;;
49183;SDS011;35021;49.214;12.270;2023-04-03T07:32:27;3.08;;;1.80;;
49183;SDS011;35021;49.214;12.270;2023-04-03T07:34:54;1.92;;;1.40;;
49183;SDS011;35021;49.214;12.270;2023-04-03T07:37:21;2.85;;;1.60;;
49183;SDS011;35021;49.214;12.270;2023-04-03T07:39:48;2.22;;;1.50;;
49183;SDS011;35021;49.214;12.270;2023-04-03T07:42:15;2.67;;;1.63;;
49183;SDS011;35021;49.214;12.270;2023-04-03T07:44:43;2.00;;;1.50;;
49183;SDS011;35021;49.214;12.270;2023-04-03T07:47:10;2.63;;;1.42;;
49183;SDS011;35021;49.214;12.270;2023-04-03T07:49:37;2.72;;;1.60;;
49183;SDS011;35021;49.214;12.270;2023-04-03T07:52:06;2.33;;;1.33;;
49183;SDS011;35021;49.214;12.270;2023-04-03T07:54:51;3.28;;;1.38;;
49183;SDS011;35021;49.214;12.270;2023-04-03T07:57:18;4.18;;;1.30;;
49183;SDS011;35021;49.214;12.270;2023-04-03T07:59:45;2.47;;;1.27;;
49183;SDS011;35021;49.214;12.270;2023-04-03T08:02:12;2.03;;;1.20;;
49183;SDS011;35021;49.214;12.270;2023-04-03T08:04:39;2.70;;;1.33;;
49183;SDS011;35021;49.214;12.270;2023-04-03T08:07:07;1.95;;;1.30;;
49183;SDS011;35021;49.214;12.270;2023-04-03T08:09:33;3.00;;;1.40;;
49183;SDS011;35021;49.214;12.270;2023-04-03T08:12:01;2.10;;;1.05;;
49183;SDS011;35021;49.214;12.270;2023-04-03T08:14:29;1.83;;;1.05;;
49183;SDS011;35021;49.214;12.270;2023-04-03T08:17:03;1.85;;;1.15;;
49183;SDS011;35021;49.214;12.270;2023-04-03T08:19:31;1.90;;;1.13;;
49183;SDS011;35021;49.214;12.270;2023-04-03T08:21:58;2.00;;;1.02;;
49183;SDS011;35021;49.214;12.270;2023-04-03T08:24:26;1.90;;;1.00;;
49183;SDS011;35021;49.214;12.270;2023-04-03T08:26:54;3.55;;;1.50;;
49183;SDS011;35021;49.214;12.270;2023-04-03T08:29:21;2.35;;;1.25;;
49183;SDS011;35021;49.214;12.270;2023-04-03T08:31:48;1.63;;;0.90;;
49183;SDS011;35021;49.214;12.270;2023-04-03T08:34:16;1.25;;;0.93;;
49183;SDS011;35021;49.214;12.270;2023-04-03T08:36:44;1.77;;;1.00;;
49183;SDS011;35021;49.214;12.270;2023-04-03T08:39:12;2.13;;;1.05;;
49183;SDS011;35021;49.214;12.270;2023-04-03T08:41:40;1.02;;;0.70;;
49183;SDS011;35021;49.214;12.270;2023-04-03T08:49:37;2.33;;;1.10;;
49183;SDS011;35021;49.214;12.270;2023-04-03T08:52:15;1.63;;;0.93;;
49183;SDS011;35021;49.214;12.270;2023-04-03T08:57:30;2.28;;;1.13;;
49183;SDS011;35021;49.214;12.270;2023-04-03T09:00:19;2.13;;;1.02;;
49183;SDS011;35021;49.214;12.270;2023-04-03T09:02:52;1.35;;;0.85;;
49183;SDS011;35021;49.214;12.270;2023-04-03T09:08:22;2.25;;;1.23;;
49183;SDS011;35021;49.214;12.270;2023-04-03T09:10:55;2.08;;;1.05;;
49183;SDS011;35021;49.214;12.270;2023-04-03T09:17:08;1.90;;;1.10;;
49183;SDS011;35021;49.214;12.270;2023-04-03T09:22:13;2.53;;;1.10;;
49183;SDS011;35021;49.214;12.270;2023-04-03T09:24:45;2.30;;;1.10;;
49183;SDS011;35021;49.214;12.270;2023-04-03T09:27:18;3.53;;;1.33;;
49183;SDS011;35021;49.214;12.270;2023-04-03T09:29:45;2.22;;;1.00;;
49183;SDS011;35021;49.214;12.270;2023-04-03T09:32:18;2.15;;;1.15;;
49183;SDS011;35021;49.214;12.270;2023-04-03T09:35:17;1.70;;;1.08;;
49183;SDS011;35021;49.214;12.270;2023-04-03T09:40:50;1.50;;;0.80;;
49183;SDS011;35021;49.214;12.270;2023-04-03T09:43:32;3.38;;;1.23;;
49183;SDS011;35021;49.214;12.270;2023-04-03T09:49:04;2.72;;;1.00;;
49183;SDS011;35021;49.214;12.270;2023-04-03T09:51:35;1.88;;;0.95;;
49183;SDS011;35021;49.214;12.270;2023-04-03T09:56:53;1.25;;;0.90;;
49183;SDS011;35021;49.214;12.270;2023-04-03T09:59:25;1.98;;;1.00;;
49183;SDS011;35021;49.214;12.270;2023-04-03T10:02:00;1.70;;;0.80;;
49183;SDS011;35021;49.214;12.270;2023-04-03T10:04:43;2.58;;;1.20;;
49183;SDS011;35021;49.214;12.270;2023-04-03T10:07:33;1.80;;;0.95;;
49183;SDS011;35021;49.214;12.270;2023-04-03T10:12:46;2.45;;;1.15;;
49183;SDS011;35021;49.214;12.270;2023-04-03T10:15:16;1.95;;;1.02;;
49183;SDS011;35021;49.214;12.270;2023-04-03T10:18:02;1.65;;;1.10;;
49183;SDS011;35021;49.214;12.270;2023-04-03T10:20:49;1.67;;;0.95;;
49183;SDS011;35021;49.214;12.270;2023-04-03T10:23:32;1.45;;;1.00;;
49183;SDS011;35021;49.214;12.270;2023-04-03T10:29:05;1.75;;;1.15;;
49183;SDS011;35021;49.214;12.270;2023-04-03T10:31:44;1.73;;;1.00;;
49183;SDS011;35021;49.214;12.270;2023-04-03T10:34:23;1.23;;;0.98;;
49183;SDS011;35021;49.214;12.270;2023-04-03T10:47:18;2.40;;;1.00;;
49183;SDS011;35021;49.214;12.270;2023-04-03T10:50:00;1.48;;;1.00;;
49183;SDS011;35021;49.214;12.270;2023-04-03T10:57:53;2.67;;;1.20;;
49183;SDS011;35021;49.214;12.270;2023-04-03T11:00:42;1.60;;;1.00;;
49183;SDS011;35021;49.214;12.270;2023-04-03T11:03:16;2.05;;;1.02;;
49183;SDS011;35021;49.214;12.270;2023-04-03T11:05:53;2.17;;;1.20;;
49183;SDS011;35021;49.214;12.270;2023-04-03T11:08:27;1.98;;;0.80;;
49183;SDS011;35021;49.214;12.270;2023-04-03T11:11:00;1.48;;;0.95;;
49183;SDS011;35021;49.214;12.270;2023-04-03T11:13:34;1.25;;;0.80;;
49183;SDS011;35021;49.214;12.270;2023-04-03T11:16:06;1.35;;;1.00;;
49183;SDS011;35021;49.214;12.270;2023-04-03T11:18:39;1.65;;;0.93;;
49183;SDS011;35021;49.214;12.270;2023-04-03T11:21:26;1.35;;;0.85;;
49183;SDS011;35021;49.214;12.270;2023-04-03T11:23:58;1.73;;;1.17;;
49183;SDS011;35021;49.214;12.270;2023-04-03T11:26:29;1.20;;;1.10;;
49183;SDS011;35021;49.214;12.270;2023-04-03T11:29:03;1.33;;;0.90;;
49183;SDS011;35021;49.214;12.270;2023-04-03T11:34:33;2.03;;;1.00;;
49183;SDS011;35021;49.214;12.270;2023-04-03T11:37:11;1.63;;;1.10;;
49183;SDS011;35021;49.214;12.270;2023-04-03T11:39:59;2.13;;;1.15;;
49183;SDS011;35021;49.214;12.270;2023-04-03T11:42:34;1.77;;;1.27;;
49183;SDS011;35021;49.214;12.270;2023-04-03T11:45:15;1.20;;;0.80;;
49183;SDS011;35021;49.214;12.270;2023-04-03T11:47:57;1.65;;;0.90;;
49183;SDS011;35021;49.214;12.270;2023-04-03T11:55:45;1.38;;;0.73;;
49183;SDS011;35021;49.214;12.270;2023-04-03T11:58:17;2.17;;;1.00;;
49183;SDS011;35021;49.214;12.270;2023-04-03T12:01:00;2.15;;;1.25;;
49183;SDS011;35021;49.214;12.270;2023-04-03T12:03:56;1.92;;;1.02;;
49183;SDS011;35021;49.214;12.270;2023-04-03T12:09:04;1.30;;;0.95;;
49183;SDS011;35021;49.214;12.270;2023-04-03T12:11:57;1.05;;;0.75;;
49183;SDS011;35021;49.214;12.270;2023-04-03T12:14:26;2.38;;;1.08;;
49183;SDS011;35021;49.214;12.270;2023-04-03T12:16:54;2.20;;;1.20;;
49183;SDS011;35021;49.214;12.270;2023-04-03T12:22:18;1.88;;;1.02;;
49183;SDS011;35021;49.214;12.270;2023-04-03T12:24:51;1.90;;;1.10;;
49183;SDS011;35021;49.214;12.270;2023-04-03T12:32:43;1.38;;;0.77;;
49183;SDS011;35021;49.214;12.270;2023-04-03T12:48:39;2.00;;;1.00;;
49183;SDS011;35021;49.214;12.270;2023-04-03T12:54:22;1.77;;;0.88;;
49183;SDS011;35021;49.214;12.270;2023-04-03T12:59:51;1.42;;;0.90;;
49183;SDS011;35021;49.214;12.270;2023-04-03T13:05:04;1.30;;;0.82;;
49183;SDS011;35021;49.214;12.270;2023-04-03T13:07:35;1.55;;;0.80;;
49183;SDS011;35021;49.214;12.270;2023-04-03T13:12:44;2.70;;;0.90;;
49183;SDS011;35021;49.214;12.270;2023-04-03T13:15:17;1.65;;;1.00;;
49183;SDS011;35021;49.214;12.270;2023-04-03T13:17:51;1.27;;;0.82;;
49183;SDS011;35021;49.214;12.270;2023-04-03T13:20:26;2.53;;;1.30;;
49183;SDS011;35021;49.214;12.270;2023-04-03T13:25:28;1.30;;;0.90;;
49183;SDS011;35021;49.214;12.270;2023-04-03T13:27:58;1.80;;;1.00;;
49183;SDS011;35021;49.214;12.270;2023-04-03T13:30:39;3.15;;;0.88;;
49183;SDS011;35021;49.214;12.270;2023-04-03T13:33:21;4.20;;;1.00;;
49183;SDS011;35021;49.214;12.270;2023-04-03T13:36:01;1.13;;;0.88;;
49183;SDS011;35021;49.214;12.270;2023-04-03T13:38:59;1.60;;;1.00;;
49183;SDS011;35021;49.214;12.270;2023-04-03T13:50:04;1.27;;;1.00;;
49183;SDS011;35021;49.214;12.270;2023-04-03T13:52:48;1.88;;;1.30;;
49183;SDS011;35021;49.214;12.270;2023-04-03T13:57:54;1.33;;;0.93;;
49183;SDS011;35021;49.214;12.270;2023-04-03T14:06:13;1.52;;;0.90;;
49183;SDS011;35021;49.214;12.270;2023-04-03T14:08:44;2.28;;;1.00;;
49183;SDS011;35021;49.214;12.270;2023-04-03T14:11:13;2.35;;;1.08;;
49183;SDS011;35021;49.214;12.270;2023-04-03T14:13:44;2.17;;;1.15;;
49183;SDS011;35021;49.214;12.270;2023-04-03T14:16:17;2.20;;;1.00;;
49183;SDS011;35021;49.214;12.270;2023-04-03T14:18:47;1.65;;;0.80;;
49183;SDS011;35021;49.214;12.270;2023-04-03T14:21:16;1.67;;;0.95;;
49183;SDS011;35021;49.214;12.270;2023-04-03T14:23:44;2.72;;;1.20;;
49183;SDS011;35021;49.214;12.270;2023-04-03T14:26:16;2.22;;;1.08;;
49183;SDS011;35021;49.214;12.270;2023-04-03T14:28:44;2.40;;;1.15;;
49183;SDS011;35021;49.214;12.270;2023-04-03T14:31:13;2.63;;;1.00;;
49183;SDS011;35021;49.214;12.270;2023-04-03T14:33:42;2.75;;;1.30;;
49183;SDS011;35021;49.214;12.270;2023-04-03T14:38:41;1.25;;;0.98;;
49183;SDS011;35021;49.214;12.270;2023-04-03T14:41:10;1.17;;;0.80;;
49183;SDS011;35021;49.214;12.270;2023-04-03T14:43:42;2.38;;;0.95;;
49183;SDS011;35021;49.214;12.270;2023-04-03T14:46:14;1.70;;;0.95;;
49183;SDS011;35021;49.214;12.270;2023-04-03T14:48:46;2.60;;;1.05;;
49183;SDS011;35021;49.214;12.270;2023-04-03T14:51:13;2.20;;;1.00;;
49183;SDS011;35021;49.214;12.270;2023-04-03T14:53:42;3.78;;;1.30;;
49183;SDS011;35021;49.214;12.270;2023-04-03T14:56:18;2.10;;;0.93;;
49183;SDS011;35021;49.214;12.270;2023-04-03T14:58:58;1.83;;;1.02;;
49183;SDS011;35021;49.214;12.270;2023-04-03T15:01:29;1.85;;;0.82;;
49183;SDS011;35021;49.214;12.270;2023-04-03T15:03:56;1.70;;;1.08;;
49183;SDS011;35021;49.214;12.270;2023-04-03T15:06:24;1.48;;;1.10;;
49183;SDS011;35021;49.214;12.270;2023-04-03T15:08:52;2.53;;;1.40;;
49183;SDS011;35021;49.214;12.270;2023-04-03T15:11:19;2.03;;;1.10;;
49183;SDS011;35021;49.214;12.270;2023-04-03T15:13:46;3.30;;;1.15;;
49183;SDS011;35021;49.214;12.270;2023-04-03T15:16:17;2.03;;;1.13;;
49183;SDS011;35021;49.214;12.270;2023-04-03T15:18:46;4.70;;;1.20;;
49183;SDS011;35021;49.214;12.270;2023-04-03T15:21:14;3.83;;;1.27;;
49183;SDS011;35021;49.214;12.270;2023-04-03T15:23:41;2.28;;;1.35;;
49183;SDS011;35021;49.214;12.270;2023-04-03T15:26:09;2.65;;;1.20;;
49183;SDS011;35021;49.214;12.270;2023-04-03T15:28:37;3.58;;;1.42;;
49183;SDS011;35021;49.214;12.270;2023-04-03T15:31:06;2.03;;;0.93;;
49183;SDS011;35021;49.214;12.270;2023-04-03T15:33:34;2.15;;;1.10;;
49183;SDS011;35021;49.214;12.270;2023-04-03T15:36:02;2.03;;;1.25;;
49183;SDS011;35021;49.214;12.270;2023-04-03T15:38:42;2.95;;;1.10;;
49183;SDS011;35021;49.214;12.270;2023-04-03T15:44:01;2.08;;;1.27;;
49183;SDS011;35021;49.214;12.270;2023-04-03T15:46:28;1.67;;;1.08;;
49183;SDS011;35021;49.214;12.270;2023-04-03T15:48:55;2.00;;;1.10;;
49183;SDS011;35021;49.214;12.270;2023-04-03T15:51:22;1.45;;;1.00;;
49183;SDS011;35021;49.214;12.270;2023-04-03T15:53:49;2.17;;;1.10;;
49183;SDS011;35021;49.214;12.270;2023-04-03T15:56:16;1.75;;;1.17;;
49183;SDS011;35021;49.214;12.270;2023-04-03T15:58:42;2.63;;;1.10;;
49183;SDS011;35021;49.214;12.270;2023-04-03T16:01:09;1.80;;;1.10;;
49183;SDS011;35021;49.214;12.270;2023-04-03T16:03:39;1.98;;;1.10;;
49183;SDS011;35021;49.214;12.270;2023-04-03T16:06:12;1.80;;;0.95;;
49183;SDS011;35021;49.214;12.270;2023-04-03T16:08:41;2.22;;;1.27;;
49183;SDS011;35021;49.214;12.270;2023-04-03T16:11:09;1.58;;;1.00;;
49183;SDS011;35021;49.214;12.270;2023-04-03T16:13:38;4.00;;;1.25;;
49183;SDS011;35021;49.214;12.270;2023-04-03T16:16:05;1.35;;;0.90;;
49183;SDS011;35021;49.214;12.270;2023-04-03T16:18:33;2.22;;;1.48;;
49183;SDS011;35021;49.214;12.270;2023-04-03T16:21:01;2.08;;;1.20;;
49183;SDS011;35021;49.214;12.270;2023-04-03T16:23:28;1.67;;;1.10;;
49183;SDS011;35021;49.214;12.270;2023-04-03T16:25:55;1.75;;;1.10;;
49183;SDS011;35021;49.214;12.270;2023-04-03T16:28:22;1.65;;;1.00;;
49183;SDS011;35021;49.214;12.270;2023-04-03T16:30:49;2.72;;;1.27;;
49183;SDS011;35021;49.214;12.270;2023-04-03T16:33:17;1.50;;;0.90;;
49183;SDS011;35021;49.214;12.270;2023-04-03T16:35:48;1.40;;;0.90;;
49183;SDS011;35021;49.214;12.270;2023-04-03T16:38:16;1.92;;;1.00;;
49183;SDS011;35021;49.214;12.270;2023-04-03T16:40:45;1.42;;;0.90;;
49183;SDS011;35021;49.214;12.270;2023-04-03T16:43:12;1.55;;;0.77;;
49183;SDS011;35021;49.214;12.270;2023-04-03T16:45:40;2.00;;;1.00;;
49183;SDS011;35021;49.214;12.270;2023-04-03T16:48:07;1.92;;;1.10;;
49183;SDS011;35021;49.214;12.270;2023-04-03T16:50:34;1.80;;;1.23;;
49183;SDS011;35021;49.214;12.270;2023-04-03T16:53:01;2.40;;;1.17;;
49183;SDS011;35021;49.214;12.270;2023-04-03T16:55:29;1.23;;;0.90;;
49183;SDS011;35021;49.214;12.270;2023-04-03T16:57:56;2.40;;;1.00;;
49183;SDS011;35021;49.214;12.270;2023-04-03T17:00:22;1.65;;;1.10;;